Mont-Laurier, Canada
Current Conditions -  °F | °C
As of 4:00 PM on Saturday 25 Oct 2014 (Local Time) from CYND Reporting Station
Light Rain Light Rain  
Wind Chill: 54°   Ceiling: 1000
Heat Index: 54°   Visibility: 3mi
Dew Point: 52°   Wind: 6mph
Humidity: 94%   Direction: 250°WSW
Pressure: 29.47"   Gusts: NA
Location:  46.55°N, 75.5°W
Report Text: CYND 252000Z 25005KT 220V300 3SM -RA BR BKN010 OVC020 12/11 A2947 RMK SF6SC2 SLP982 DENSITY ALT 300FT
Loading
Personal Weather Stations






























Interactive Weather Map
Tropical Storm Tracking
New forecast layout! Learn more

10-Day Weather Forecast

Advertisements
Track Severe Weather on mobile